KHIO/HIO METAR and TAF weather

Enter ICAO airport designator
Station Type Date Time Source
KHIO METAR 2020/12/05 23:53 UTC NOAA

KHIO 052353Z AUTO 15007KT 10SM CLR 07/M01 A3008 RMK AO2 SLP188 T00721006 10122 20039 55002


Station Type Date Time Source
KHIO Decoded METAR 2020/12/05 23:53 UTC NOAA

PORTLAND-HILLSBORO AIRPORT, OR, United States (KHIO) 45-33N 122-57W 68M
Dec 05, 2020 - 06:53 PM EST / 2020.12.05 2353 UTC
Wind: from the SSE (150 degrees) at 8 MPH (7 KT):0
Visibility: 10 mile(s):0
Sky conditions: clear
Temperature: 45.0 F (7.2 C)
Dew Point: 30.9 F (-0.6 C)
Relative Humidity: 57%
Pressure (altimeter): 30.08 in. Hg (1018 hPa)
Pressure tendency: 0.01 inches (0.2 hPa) lower than three hours ago
ob: KHIO 052353Z AUTO 15007KT 10SM CLR 07/M01 A3008 RMK AO2 SLP188 T00721006 10122 20039 55002
cycle: 0

Station Type Date Time Source
KHIO TAF 2020/12/05 18:42 UTC NOAA

TAF KHIO 051739Z 0518/0618 VRB04KT P6SM SCT250
FM060200 10006KT P6SM -RA OVC050
FM060600 13007KT P6SM -RA BKN015 OVC035
FM061200 18005KT P6SM -RA OVC015
FM061500 VRB03KT P6SM OVC020

Example: see airport list